M I D A S
Marine Information and Data Acquisition System
Tripno 220 of the Zeeleeuw from 2002-02-21 08:39:20 to 2002-02-21 10:52:40
Back to CruiseResearch ActivitiesStationsMapUnderway DataData graphs

EquipmentUnitsComment
TimeDGPSUTC
LatitudeDGPSDM.mWGS84
LongitudeDGPSDM.mWGS84
HeadingGyrodeg 
SOGDGPSknotsSpeed over ground
COGDGPSdegCourse over ground
DepthEcho soundermeters200 kHz
Missing or incorrect values are displayed as -999
Navigation data collected by the RV Zeeleeuw from 2002-02-21 08:39:20 to 2002-02-21 10:52:40
Time Latitude Longitude Heading SOG COG Depth
2002-02-21 08:40:22 51°13.698 2°55.845 104.2 4.4 286.6 -999
2002-02-21 08:41:21 51°13.71 2°55.735 83 3.7 274 13.1
2002-02-21 08:42:21 51°13.737 2°55.707 3 4.5 356.4 11.3
2002-02-21 08:43:21 51°13.851 2°55.617 338.8 8.8 333.6 10.2
2002-02-21 08:44:21 51°13.99 2°55.515 340 9.3 335.9 10.8
2002-02-21 08:45:21 51°14.13 2°55.41 338.2 9.2 333.6 10.6
2002-02-21 08:46:21 51°14.254 2°55.271 320.5 9.2 316.6 10.5
2002-02-21 08:47:21 51°14.35 2°55.078 313 9.2 306.6 10.5
2002-02-21 08:48:21 51°14.448 2°54.919 342.8 7.7 329.5 10.4
2002-02-21 08:49:21 51°14.552 2°54.896 22.3 5.5 9.9 10
2002-02-21 08:50:21 51°14.644 2°54.891 6.5 5.8 350.4 10.1
2002-02-21 08:51:21 51°14.75 2°54.892 14.2 6.7 1.5 9.8
2002-02-21 08:52:21 51°14.859 2°54.912 21.2 6.6 9.5 9.5
2002-02-21 08:53:21 51°14.962 2°54.9 358.3 6.2 348.8 9.3
2002-02-21 08:54:21 51°15.063 2°54.862 354 6.6 342.8 9.2
2002-02-21 08:55:21 51°15.174 2°54.795 349.2 7.7 337.2 8.8
2002-02-21 08:56:21 51°15.307 2°54.723 353.2 8.7 340.8 9.1
2002-02-21 08:57:21 51°15.441 2°54.67 359.3 8.1 350 9.5
2002-02-21 08:58:21 51°15.581 2°54.637 3.8 8.3 352.6 9.6
2002-02-21 08:59:21 51°15.714 2°54.589 351.8 8.5 342.5 10
2002-02-21 09:00:21 51°15.844 2°54.529 354.5 8.3 345.3 11.2
2002-02-21 09:01:21 51°15.981 2°54.469 354.5 8.5 345.3 10.9
2002-02-21 09:02:21 51°16.119 2°54.388 349.8 8.8 338.4 11.7
2002-02-21 09:03:21 51°16.253 2°54.308 351 8.3 339.6 11.7
2002-02-21 09:04:21 51°16.307 2°54.266 358.7 1.6 310.7 12
2002-02-21 09:05:20 51°16.312 2°54.243 4.5 1.2 271.3 12
2002-02-21 09:06:21 51°16.306 2°54.223 11 0.9 231.7 12
2002-02-21 09:07:21 51°16.292 2°54.202 18.5 1.2 212.4 12.1
2002-02-21 09:08:21 51°16.277 2°54.178 20.5 1.1 238.9 12.2
2002-02-21 09:09:21 51°16.268 2°54.161 15 0.9 241.2 11.9
2002-02-21 09:10:21 51°16.265 2°54.142 359.3 0.8 270.1 12.1
2002-02-21 09:11:21 51°16.267 2°54.116 2 0.9 288.6 12.1
2002-02-21 09:12:21 51°16.269 2°54.095 11.8 0.8 279.3 12
2002-02-21 09:13:21 51°16.271 2°54.076 22.5 0.7 285.1 12
2002-02-21 09:14:21 51°16.273 2°54.062 26.8 0.7 280.3 11.8
2002-02-21 09:15:21 51°16.271 2°54.047 6.2 0.7 253.7 11.9
2002-02-21 09:16:21 51°16.267 2°54.027 353.8 1 255.6 12
2002-02-21 09:17:21 51°16.262 2°54.003 357.8 0.8 251.6 12.2
2002-02-21 09:18:21 51°16.259 2°53.978 5.7 0.9 259.7 11.9
2002-02-21 09:19:21 51°16.251 2°53.956 16 1.1 228.1 12.2
2002-02-21 09:20:21 51°16.235 2°53.934 22.2 1.5 229.9 12.2
2002-02-21 09:21:21 51°16.216 2°53.909 24.3 1.6 215 12
2002-02-21 09:22:21 51°16.194 2°53.88 34.7 1.8 221.8 11.9
2002-02-21 09:23:21 51°16.172 2°53.852 52 1.7 218.4 12.1
2002-02-21 09:24:20 51°16.161 2°53.847 102.8 1.1 149.6 11.9
2002-02-21 09:25:21 51°16.139 2°53.886 106.8 2.3 125.1 12
2002-02-21 09:26:21 51°16.132 2°53.978 82.7 4.4 88.2 11.8
2002-02-21 09:27:21 51°16.11 2°54.106 108.7 5.4 114.3 11.6
2002-02-21 09:28:21 51°16.098 2°54.244 85.8 5.3 90.1 11.4
2002-02-21 09:29:21 51°16.089 2°54.394 94.7 5.9 98.6 11.6
2002-02-21 09:30:21 51°16.085 2°54.544 81.7 5.5 85.3 11
2002-02-21 09:31:21 51°16.074 2°54.692 101.5 5.9 106 10.6
2002-02-21 09:32:21 51°16.069 2°54.839 85.3 5.6 87.3 10.8
2002-02-21 09:33:21 51°16.058 2°54.99 95.2 5.9 97.8 10.6
2002-02-21 09:34:21 51°16.071 2°55.134 69.7 5.4 68.1 10.2
2002-02-21 09:35:21 51°16.092 2°55.274 71.3 5.4 70.6 10.1
2002-02-21 09:36:21 51°16.129 2°55.405 66.7 5.5 63.2 10.1
2002-02-21 09:37:21 51°16.166 2°55.535 63.5 5.4 63.3 10.4
2002-02-21 09:38:21 51°16.204 2°55.66 79.5 5.4 78.8 10.1
2002-02-21 09:39:21 51°16.218 2°55.794 64.7 4.5 64.6 9.9
2002-02-21 09:40:21 51°16.251 2°55.867 51.5 2.9 46.4 9.9
2002-02-21 09:41:21 51°16.274 2°55.921 60.5 2.3 64.7 10.1
2002-02-21 09:42:21 51°16.287 2°55.963 62.3 1.2 75.6 9.7
2002-02-21 09:43:21 51°16.29 2°55.976 54.8 0.2 352 10.3
2002-02-21 09:44:21 51°16.287 2°55.973 46.7 0.3 219.9 10.3
2002-02-21 09:45:21 51°16.296 2°55.985 50 1.9 41.2 10.1
2002-02-21 09:46:21 51°16.307 2°56.056 87.7 3.4 92.1 10
2002-02-21 09:47:21 51°16.271 2°56.142 126 4.2 138 10.4
2002-02-21 09:48:21 51°16.206 2°56.175 165.8 4.3 175.8 9.8
2002-02-21 09:49:21 51°16.131 2°56.152 196.8 4.7 199.4 9.5
2002-02-21 09:50:21 51°16.068 2°56.076 224.2 4.7 226.4 9.6
2002-02-21 09:51:21 51°16.028 2°55.979 252.2 4.3 245.7 9.4
2002-02-21 09:52:21 51°16.002 2°55.881 263.3 3.9 247.3 9.5
2002-02-21 09:53:21 51°15.987 2°55.802 281 2.8 258.3 9.5
2002-02-21 09:54:21 51°15.98 2°55.738 301.7 2.4 259.3 9.6
2002-02-21 09:55:21 51°15.977 2°55.681 301.7 2.1 258.1 9
2002-02-21 09:56:21 51°15.975 2°55.623 307.7 2.3 268.1 9.5
2002-02-21 09:57:21 51°15.974 2°55.566 311.2 2.2 265.7 9
2002-02-21 09:58:21 51°15.973 2°55.511 314.2 2 270.3 9.4
2002-02-21 09:59:21 51°15.973 2°55.458 319.3 2.1 270.5 9.6
2002-02-21 10:00:21 51°15.977 2°55.4 316 2.3 273.6 9.7
2002-02-21 10:01:21 51°15.983 2°55.337 321.3 2.5 281.4 9.6
2002-02-21 10:02:21 51°15.995 2°55.283 338.3 2 291.2 9.5
2002-02-21 10:03:21 51°16.007 2°55.236 341.8 1.9 297.9 10.2
2002-02-21 10:04:21 51°16.025 2°55.192 347.2 1.9 302.4 9.9
2002-02-21 10:05:21 51°16.04 2°55.149 347.8 1.8 304.3 9.9
2002-02-21 10:06:21 51°16.058 2°55.102 349 2.2 300.5 10.2
2002-02-21 10:07:21 51°16.076 2°55.06 350.7 1.8 302.2 10.3
2002-02-21 10:08:21 51°16.093 2°55.02 354.2 1.7 305.4 10.4
2002-02-21 10:09:21 51°16.108 2°54.987 358.7 1.5 310.2 10.3
2002-02-21 10:10:21 51°16.125 2°54.954 354.5 1.8 307.7 10.4
2002-02-21 10:11:21 51°16.14 2°54.92 0.7 1.5 305.4 10.5
2002-02-21 10:12:21 51°16.174 2°54.92 43.2 2.6 27.3 10.6
2002-02-21 10:13:21 51°16.181 2°54.996 100.8 3.7 104.3 10.3
2002-02-21 10:14:20 51°16.122 2°55.065 156 5.2 163 9.9
2002-02-21 10:15:21 51°16.025 2°55.037 205.8 6.3 209.3 9.9
2002-02-21 10:16:21 51°15.963 2°54.923 244.5 4.8 236.3 10.1
2002-02-21 10:17:21 51°15.934 2°54.831 254.7 3.3 247.9 9.9
2002-02-21 10:18:21 51°15.912 2°54.758 256.2 2.9 244.7 9.8
2002-02-21 10:19:21 51°15.89 2°54.697 258.2 2.6 236.8 9.9
2002-02-21 10:20:21 51°15.871 2°54.643 260.5 2.2 243.1 10
2002-02-21 10:21:21 51°15.854 2°54.594 267.3 2 239.8 10
2002-02-21 10:22:21 51°15.836 2°54.549 270.7 2 238 9.9
2002-02-21 10:23:21 51°15.819 2°54.506 272.7 1.7 240.7 9.9
2002-02-21 10:24:21 51°15.801 2°54.467 273.7 1.8 233.6 10.1
2002-02-21 10:25:21 51°15.781 2°54.428 276.7 2.1 224.3 10.1
2002-02-21 10:26:21 51°15.765 2°54.388 276 1.8 235.1 10.1
2002-02-21 10:27:21 51°15.746 2°54.351 275.2 1.8 231.7 9.9
2002-02-21 10:28:21 51°15.727 2°54.314 273.8 2 218.1 9.9
2002-02-21 10:29:21 51°15.709 2°54.282 267 1.7 227.5 9.7
2002-02-21 10:30:21 51°15.69 2°54.25 262.2 1.8 216.1 9.9
2002-02-21 10:31:21 51°15.665 2°54.196 243.5 5 233.7 9.9
2002-02-21 10:32:21 51°15.543 2°54.154 163.3 9.7 169.9 9.8
2002-02-21 10:33:21 51°15.373 2°54.233 158.5 11 162.2 8.7
2002-02-21 10:34:21 51°15.174 2°54.345 153.3 12.8 159.1 8.1
2002-02-21 10:35:21 51°14.964 2°54.436 164.8 13 168.2 8
2002-02-21 10:36:21 51°14.774 2°54.599 145.3 12.6 149.6 8.9
2002-02-21 10:37:21 51°14.593 2°54.775 137.5 11.2 139 8.7
2002-02-21 10:38:21 51°14.439 2°54.967 134 11.5 134 9.3
2002-02-21 10:39:21 51°14.317 2°55.178 133.2 10.4 130.5 9.2
2002-02-21 10:40:21 51°14.232 2°55.313 139.3 5.6 136.2 9.5
2002-02-21 10:41:21 51°14.166 2°55.388 155.8 4.7 151.9 9.5
2002-02-21 10:42:21 51°14.094 2°55.442 158.5 5.2 154.7 9.6
2002-02-21 10:43:21 51°13.999 2°55.509 160.8 6.5 156.3 9.5
2002-02-21 10:44:21 51°13.9 2°55.58 159 6.5 157.1 9.3
2002-02-21 10:45:21 51°13.803 2°55.655 152.3 6.4 150.8 9.4
2002-02-21 10:46:21 51°13.745 2°55.737 137.3 3.7 134.5 9.1
2002-02-21 10:47:21 51°13.716 2°55.794 127.7 2.3 123 9.7
2002-02-21 10:48:21 51°13.702 2°55.85 114.2 2.5 105.8 6.8
2002-02-21 10:49:21 51°13.691 2°55.899 130.7 0.5 125.7 5.8
2002-02-21 10:50:21 51°13.689 2°55.905 128.2 0.1 74.3 5.4
2002-02-21 10:51:22 51°13.689 2°55.905 128.5   207.3 -999
2002-02-21 10:52:22 51°13.689 2°55.905 131.3   188.3 -999